Time;durP1;ratioP1;P1;durP2;ratioP2;P2;SDS_P1;SDS_P2;PMS_P1;PMS_P2;Temp;Humidity;BMP_temperature;BMP_pressure;BME280_temperature;BME280_humidity;BME280_pressure;Samples;Min_cycle;Max_cycle;Signal;HPM_P1;HPM_P2
2022/06/29 00:02:25;;;;;;;2.78;2.53;;;16.10;99.90;;;;;;5063860;28;20024;-53
2022/06/29 00:04:51;;;;;;;3.25;2.60;;;16.10;99.90;;;;;;5062250;28;20082;-51
2022/06/29 00:07:17;;;;;;;3.10;2.85;;;16.10;99.90;;;;;;5064023;28;20020;-54
2022/06/29 00:09:42;;;;;;;3.53;2.85;;;16.00;99.90;;;;;;5063919;28;20051;-51
2022/06/29 00:12:08;;;;;;;2.78;2.53;;;16.10;99.90;;;;;;5061236;28;20021;-53
2022/06/29 00:14:41;;;;;;;2.80;2.60;;;16.00;99.90;;;;;;5063672;28;20017;-50
2022/06/29 00:17:09;;;;;;;2.90;2.58;;;16.00;99.90;;;;;;5061373;28;20024;-52
2022/06/29 00:19:35;;;;;;;3.05;2.40;;;16.00;99.90;;;;;;5049590;28;20024;-49
2022/06/29 00:22:00;;;;;;;2.75;2.55;;;16.00;99.90;;;;;;5060886;28;20032;-48
2022/06/29 00:24:26;;;;;;;4.70;2.35;;;15.90;99.90;;;;;;5063829;28;20025;-50
2022/06/29 00:26:51;;;;;;;3.30;2.72;;;15.90;99.90;;;;;;5062712;28;20036;-54
2022/06/29 00:29:17;;;;;;;3.00;2.70;;;15.90;99.90;;;;;;5063721;28;20033;-49
2022/06/29 00:31:43;;;;;;;2.92;2.40;;;15.90;99.90;;;;;;5063348;28;20016;-50
2022/06/29 00:34:08;;;;;;;4.78;2.60;;;15.90;99.90;;;;;;5060712;28;20408;-50
2022/06/29 00:36:34;;;;;;;2.72;2.10;;;15.90;99.90;;;;;;5061955;28;20020;-50
2022/06/29 00:38:59;;;;;;;2.10;2.00;;;15.90;99.90;;;;;;5061783;28;20028;-52
2022/06/29 00:41:25;;;;;;;2.63;2.10;;;15.90;99.90;;;;;;5063067;28;20016;-49
2022/06/29 00:43:50;;;;;;;3.28;2.10;;;15.90;99.90;;;;;;5062207;28;20025;-49
2022/06/29 00:46:16;;;;;;;2.75;2.20;;;15.80;99.90;;;;;;5063137;28;20017;-49
2022/06/29 00:48:42;;;;;;;2.33;2.10;;;15.80;99.90;;;;;;5062805;28;20025;-49
2022/06/29 00:51:10;;;;;;;2.25;2.10;;;15.80;99.90;;;;;;5060424;28;20083;-50
2022/06/29 00:53:40;;;;;;;2.42;2.22;;;15.80;99.90;;;;;;5061392;28;20084;-50
2022/06/29 00:56:09;;;;;;;2.47;2.03;;;15.80;99.90;;;;;;5060762;28;20499;-51
2022/06/29 01:32:15;;;;;;;1.63;1.52;;;15.40;99.90;;;;;;5046101;28;20725;-50
2022/06/29 01:34:41;;;;;;;2.40;2.20;;;15.50;99.90;;;;;;5063773;28;20032;-48
2022/06/29 01:37:07;;;;;;;2.40;1.75;;;15.50;99.90;;;;;;5059860;28;20032;-50
2022/06/29 01:39:34;;;;;;;2.38;2.10;;;15.40;99.90;;;;;;5062430;28;20024;-51
2022/06/29 01:42:00;;;;;;;2.22;2.08;;;15.40;99.90;;;;;;5055366;28;20040;-48
2022/06/29 01:44:25;;;;;;;2.60;2.00;;;15.40;99.90;;;;;;5050116;28;20045;-51
2022/06/29 01:46:51;;;;;;;3.53;2.17;;;15.40;99.90;;;;;;5050403;28;20071;-52
2022/06/29 01:49:17;;;;;;;2.42;2.22;;;15.30;99.90;;;;;;5061923;28;20032;-49
2022/06/29 01:51:42;;;;;;;2.80;2.60;;;15.30;99.90;;;;;;5050762;28;20546;-51
2022/06/29 01:54:08;;;;;;;2.33;2.13;;;15.30;99.90;;;;;;5061474;28;20028;-49
2022/06/29 01:56:34;;;;;;;2.15;1.88;;;15.30;99.90;;;;;;5054378;28;20596;-50
2022/06/29 01:59:00;;;;;;;2.72;1.92;;;15.20;99.90;;;;;;5063733;28;20097;-50
2022/06/29 02:01:26;;;;;;;1.90;1.77;;;15.20;99.90;;;;;;5059250;28;20047;-51
2022/06/29 02:03:51;;;;;;;3.17;2.20;;;15.20;99.90;;;;;;5060400;28;20390;-49
2022/06/29 02:06:21;;;;;;;3.80;2.25;;;15.20;99.90;;;;;;5061773;28;20026;-49
2022/06/29 02:08:47;;;;;;;1.70;1.60;;;15.20;99.90;;;;;;5056113;28;20502;-50
2022/06/29 02:11:13;;;;;;;2.30;2.10;;;15.20;99.90;;;;;;5058846;28;20588;-51
2022/06/29 02:13:38;;;;;;;2.08;1.98;;;15.10;99.90;;;;;;5061595;28;20024;-49
2022/06/29 02:16:04;;;;;;;2.35;2.15;;;15.10;99.90;;;;;;5059917;28;20020;-50
2022/06/29 02:18:30;;;;;;;2.53;2.00;;;15.10;99.90;;;;;;5061812;28;20024;-48
2022/06/29 02:20:56;;;;;;;2.10;1.90;;;15.10;99.90;;;;;;5060693;28;20037;-50
2022/06/29 02:23:21;;;;;;;2.20;2.00;;;15.00;99.90;;;;;;5058850;28;20398;-53
2022/06/29 02:25:48;;;;;;;2.63;2.08;;;15.00;99.90;;;;;;5056120;28;20505;-49
2022/06/29 02:28:13;;;;;;;2.75;1.88;;;15.00;99.90;;;;;;5059350;28;20029;-50
2022/06/29 02:36:07;;;;;;;4.68;2.20;;;15.00;99.90;;;;;;5058860;28;20122;-51
2022/06/29 02:38:33;;;;;;;2.45;1.85;;;15.00;99.90;;;;;;5063999;28;20021;-49
2022/06/29 02:40:59;;;;;;;2.00;1.80;;;14.90;99.90;;;;;;5059898;28;20397;-52
2022/06/29 02:43:25;;;;;;;2.80;1.83;;;14.90;99.90;;;;;;5055824;28;20106;-48
2022/06/29 02:45:51;;;;;;;1.75;1.65;;;14.90;99.90;;;;;;5063351;28;20100;-49
2022/06/29 02:48:17;;;;;;;4.35;2.47;;;14.90;99.90;;;;;;5057551;28;20025;-49
2022/06/29 02:50:42;;;;;;;2.53;2.22;;;14.80;99.90;;;;;;5064222;28;20036;-51
2022/06/29 02:53:08;;;;;;;2.63;2.35;;;14.80;99.90;;;;;;5058178;28;20240;-50
2022/06/29 02:55:33;;;;;;;2.78;2.35;;;14.80;99.90;;;;;;5063862;28;20094;-52
2022/06/29 02:57:59;;;;;;;2.28;2.05;;;14.70;99.90;;;;;;5059925;28;20024;-48
2022/06/29 03:00:25;;;;;;;2.95;2.08;;;14.70;99.90;;;;;;5053056;28;20391;-50
2022/06/29 03:02:50;;;;;;;2.67;2.30;;;14.70;99.90;;;;;;5064779;28;20028;-53
2022/06/29 03:05:16;;;;;;;2.75;2.28;;;14.70;99.90;;;;;;5057431;28;20151;-51
2022/06/29 03:07:42;;;;;;;2.55;2.35;;;14.70;99.90;;;;;;5057571;28;20025;-48
2022/06/29 03:10:08;;;;;;;4.05;2.22;;;14.70;99.90;;;;;;5063305;28;20482;-50
2022/06/29 03:12:34;;;;;;;3.17;2.53;;;14.60;99.90;;;;;;5057096;28;20021;-51
2022/06/29 03:14:59;;;;;;;2.47;2.13;;;14.60;99.90;;;;;;5063961;28;20032;-51
2022/06/29 03:17:25;;;;;;;2.20;2.00;;;14.60;99.90;;;;;;5057059;28;20075;-50
2022/06/29 03:19:50;;;;;;;2.83;2.22;;;14.60;99.90;;;;;;5065007;28;20056;-54
2022/06/29 03:22:16;;;;;;;2.60;2.40;;;14.60;99.90;;;;;;5056620;28;20032;-50
2022/06/29 03:24:41;;;;;;;2.50;2.30;;;14.60;99.90;;;;;;5057363;28;20031;-49
2022/06/29 03:27:07;;;;;;;4.22;1.92;;;14.60;99.90;;;;;;5061522;28;20048;-51
2022/06/29 03:29:33;;;;;;;1.90;1.80;;;14.60;99.90;;;;;;5057087;28;20140;-51
2022/06/29 03:31:58;;;;;;;2.28;2.08;;;14.60;99.90;;;;;;5063903;28;20136;-49
2022/06/29 03:34:24;;;;;;;3.25;2.22;;;14.60;99.90;;;;;;5057261;28;20013;-52
2022/06/29 03:36:49;;;;;;;2.25;1.95;;;14.60;99.90;;;;;;5064848;28;20020;-51
2022/06/29 03:39:15;;;;;;;2.00;1.90;;;14.60;99.90;;;;;;5055935;28;20017;-49
2022/06/29 03:41:41;;;;;;;2.63;2.42;;;14.60;99.90;;;;;;5056894;28;20025;-50
2022/06/29 03:44:06;;;;;;;2.38;2.17;;;14.60;99.90;;;;;;5057035;28;20025;-53
2022/06/29 03:46:32;;;;;;;2.83;1.80;;;14.60;99.90;;;;;;5057771;28;20037;-49
2022/06/29 03:48:58;;;;;;;2.38;1.75;;;14.70;99.90;;;;;;5063664;28;20048;-49
2022/06/29 03:51:23;;;;;;;2.90;2.05;;;14.60;99.90;;;;;;5054971;28;20089;-51
2022/06/29 03:53:49;;;;;;;2.90;1.95;;;14.70;99.90;;;;;;5064472;28;20032;-52
2022/06/29 03:56:15;;;;;;;2.35;2.08;;;14.70;99.90;;;;;;5057213;28;20021;-50
2022/06/29 03:58:40;;;;;;;1.77;1.60;;;14.70;99.90;;;;;;5057299;28;20028;-50
2022/06/29 04:01:06;;;;;;;2.28;1.80;;;14.70;99.90;;;;;;5061931;28;20068;-53
2022/06/29 04:03:31;;;;;;;2.05;1.85;;;14.80;99.90;;;;;;5065376;28;20028;-49
2022/06/29 04:05:57;;;;;;;2.05;1.95;;;14.80;99.90;;;;;;5061681;28;20468;-52
2022/06/29 04:08:23;;;;;;;1.83;1.73;;;14.80;99.90;;;;;;5064330;28;20052;-51
2022/06/29 04:10:48;;;;;;;2.05;1.85;;;14.90;99.90;;;;;;5061851;28;20024;-50
2022/06/29 04:13:14;;;;;;;1.95;1.75;;;14.90;99.90;;;;;;5063703;28;20480;-48
2022/06/29 04:15:40;;;;;;;2.15;1.50;;;14.90;99.90;;;;;;5063362;28;20017;-51
2022/06/29 04:18:06;;;;;;;2.85;1.95;;;14.90;99.90;;;;;;5061578;28;20017;-51
2022/06/29 04:23:16;;;;;;;2.38;1.63;;;15.00;99.90;;;;;;5050135;28;20082;-49
2022/06/29 04:25:41;;;;;;;2.10;1.90;;;15.00;99.90;;;;;;5061987;28;20439;-49
2022/06/29 04:28:07;;;;;;;2.67;1.67;;;15.10;99.90;;;;;;5062561;28;20036;-52
2022/06/29 04:30:33;;;;;;;2.28;1.83;;;15.10;99.90;;;;;;5063525;28;20025;-49
2022/06/29 04:32:59;;;;;;;2.17;1.50;;;15.10;99.90;;;;;;5061419;28;20029;-50
2022/06/29 04:35:24;;;;;;;2.20;2.05;;;15.10;99.90;;;;;;5063299;28;20020;-51
2022/06/29 04:37:50;;;;;;;3.17;1.83;;;15.20;99.90;;;;;;5061164;28;20017;-49
2022/06/29 04:40:15;;;;;;;1.77;1.67;;;15.20;99.90;;;;;;5063347;28;20024;-51
2022/06/29 04:42:41;;;;;;;2.38;2.03;;;15.30;99.90;;;;;;5061667;28;20028;-49
2022/06/29 04:46:19;;;;;;;2.55;1.77;;;15.30;99.90;;;;;;5062571;28;20067;-51
2022/06/29 04:47:52;;;;;;;2.47;1.50;;;15.40;99.90;;;;;;5061480;28;20032;-49
2022/06/29 04:50:18;;;;;;;1.98;1.77;;;15.40;99.90;;;;;;5063491;28;20040;-50
2022/06/29 04:52:44;;;;;;;2.17;2.03;;;15.40;99.90;;;;;;5061418;28;20506;-53
2022/06/29 04:55:09;;;;;;;1.98;1.77;;;15.50;99.90;;;;;;5061086;28;20344;-49
2022/06/29 04:57:35;;;;;;;2.22;1.60;;;15.50;99.90;;;;;;5063062;28;20356;-48
2022/06/29 05:00:01;;;;;;;3.10;1.65;;;15.60;99.90;;;;;;5055607;28;20028;-51
2022/06/29 05:02:27;;;;;;;3.10;1.52;;;15.60;99.90;;;;;;5057821;28;20036;-52
2022/06/29 05:04:52;;;;;;;2.17;1.48;;;15.70;99.90;;;;;;5062494;28;20028;-52
2022/06/29 05:07:18;;;;;;;1.90;1.80;;;15.80;99.90;;;;;;5057316;28;20025;-50
2022/06/29 05:09:45;;;;;;;2.25;1.67;;;15.80;99.90;;;;;;5064643;28;20493;-53
2022/06/29 05:12:11;;;;;;;2.97;1.92;;;15.90;99.90;;;;;;5059416;28;20419;-50
2022/06/29 05:14:36;;;;;;;1.63;1.52;;;15.90;99.90;;;;;;5064184;28;20112;-50
2022/06/29 05:17:02;;;;;;;2.83;1.45;;;16.00;99.90;;;;;;5060764;28;20444;-49
2022/06/29 05:19:28;;;;;;;1.95;1.60;;;16.10;99.90;;;;;;5063895;28;20055;-49
2022/06/29 05:21:53;;;;;;;1.75;1.65;;;16.10;99.90;;;;;;5061846;28;20025;-54
2022/06/29 05:24:19;;;;;;;3.97;1.90;;;16.20;99.90;;;;;;5059308;28;20029;-52
2022/06/29 05:26:44;;;;;;;3.25;1.65;;;16.30;99.90;;;;;;5080501;22;20049;-50
2022/06/29 05:29:10;;;;;;;2.45;1.50;;;16.40;99.90;;;;;;5062311;28;20074;-48
2022/06/29 05:31:35;;;;;;;2.30;1.50;;;16.50;99.90;;;;;;5063691;28;20474;-48
2022/06/29 05:34:01;;;;;;;2.70;1.42;;;16.60;99.90;;;;;;5060687;28;20055;-49
2022/06/29 05:36:27;;;;;;;2.22;1.50;;;16.70;99.90;;;;;;5057072;28;20052;-50
2022/06/29 05:38:52;;;;;;;3.63;1.48;;;16.80;99.90;;;;;;5061927;28;20082;-50
2022/06/29 05:41:18;;;;;;;2.60;1.85;;;16.80;99.90;;;;;;5058612;28;20443;-50
2022/06/29 05:43:49;;;;;;;2.88;1.80;;;17.00;99.90;;;;;;5064034;28;20494;-51
2022/06/29 05:46:15;;;;;;;1.85;1.42;;;17.10;99.90;;;;;;5055513;28;20078;-52
2022/06/29 05:48:41;;;;;;;1.70;1.10;;;17.20;99.90;;;;;;5064334;28;20429;-50
2022/06/29 05:51:06;;;;;;;2.17;1.48;;;17.40;99.90;;;;;;5059340;28;20040;-50
2022/06/29 05:53:32;;;;;;;1.50;1.10;;;17.50;99.90;;;;;;5063517;28;20104;-47
2022/06/29 05:55:58;;;;;;;1.50;1.40;;;17.70;99.90;;;;;;5060768;28;20103;-47
2022/06/29 05:58:23;;;;;;;2.88;0.80;;;17.90;99.90;;;;;;5056470;28;20483;-48
2022/06/29 06:00:49;;;;;;;1.85;1.10;;;18.10;99.90;;;;;;5055071;28;20105;-48
2022/06/29 06:03:17;;;;;;;1.15;0.82;;;18.20;99.90;;;;;;5066072;28;20028;-49
2022/06/29 06:05:42;;;;;;;1.77;1.17;;;18.40;99.90;;;;;;5057127;28;20395;-48
2022/06/29 06:08:09;;;;;;;2.13;0.80;;;18.60;99.90;;;;;;5061124;28;20025;-49
2022/06/29 06:10:34;;;;;;;0.90;0.75;;;18.70;99.90;;;;;;5061154;28;20548;-49
2022/06/29 06:13:00;;;;;;;1.60;0.95;;;18.90;99.90;;;;;;5058442;28;20025;-53
2022/06/29 06:15:26;;;;;;;0.85;0.85;;;19.10;99.90;;;;;;5063091;28;20138;-49
2022/06/29 06:17:51;;;;;;;1.08;0.77;;;19.20;99.90;;;;;;5057321;28;20016;-52
2022/06/29 06:20:17;;;;;;;1.10;1.00;;;19.40;99.90;;;;;;5064540;28;20086;-50
2022/06/29 06:22:43;;;;;;;1.50;1.30;;;19.50;99.90;;;;;;5057834;28;20017;-49
2022/06/29 06:25:08;;;;;;;2.58;1.08;;;19.70;99.90;;;;;;5060813;28;20414;-47
2022/06/29 06:27:34;;;;;;;1.27;1.17;;;19.80;99.90;;;;;;5060828;28;20580;-49
2022/06/29 06:30:00;;;;;;;2.97;1.00;;;19.90;99.90;;;;;;5059644;28;20120;-49
2022/06/29 06:32:25;;;;;;;1.55;0.88;;;20.00;99.90;;;;;;5062841;28;20025;-50
2022/06/29 06:34:51;;;;;;;1.20;0.85;;;20.10;99.90;;;;;;5058241;28;20448;-51
2022/06/29 06:37:17;;;;;;;1.13;1.02;;;20.30;99.90;;;;;;5065260;28;20024;-50
2022/06/29 06:41:21;;;;;;;1.88;1.02;;;20.40;99.90;;;;;;5058189;28;20082;-46
2022/06/29 06:42:28;;;;;;;1.95;1.00;;;20.50;99.90;;;;;;5048822;28;20040;-46
2022/06/29 06:44:54;;;;;;;0.80;0.80;;;20.60;99.90;;;;;;5058801;28;20102;-54
2022/06/29 06:47:19;;;;;;;3.33;1.13;;;20.80;99.90;;;;;;5061456;28;20024;-54
2022/06/29 06:49:45;;;;;;;2.03;1.20;;;20.90;99.90;;;;;;5060339;28;20102;-55
2022/06/29 06:52:10;;;;;;;1.73;1.00;;;21.00;99.90;;;;;;5060469;28;20051;-53
2022/06/29 06:54:36;;;;;;;0.70;0.70;;;21.10;99.90;;;;;;5062033;28;20025;-47
2022/06/29 06:57:01;;;;;;;2.08;0.90;;;21.20;99.90;;;;;;5059339;28;20018;-52
2022/06/29 06:59:27;;;;;;;1.40;0.93;;;21.40;99.90;;;;;;5056677;28;20024;-49
2022/06/29 07:01:52;;;;;;;1.67;0.98;;;21.50;99.90;;;;;;5060067;28;20081;-46
2022/06/29 07:04:18;;;;;;;1.45;1.30;;;21.60;99.90;;;;;;5061197;28;20024;-48
2022/06/29 07:06:43;;;;;;;2.03;1.08;;;21.80;99.90;;;;;;5061229;28;20093;-49
2022/06/29 07:09:09;;;;;;;1.38;1.08;;;21.90;99.90;;;;;;5057077;28;20107;-46
2022/06/29 07:11:35;;;;;;;1.23;1.13;;;21.90;99.90;;;;;;5059520;28;20029;-51
2022/06/29 07:14:00;;;;;;;1.50;1.20;;;22.00;99.90;;;;;;5059307;28;20033;-50
2022/06/29 07:16:26;;;;;;;0.77;0.77;;;22.10;99.90;;;;;;5060993;28;20021;-50
2022/06/29 07:18:53;;;;;;;1.40;0.95;;;22.20;99.90;;;;;;5060431;28;20117;-49
2022/06/29 07:21:18;;;;;;;1.92;0.85;;;22.30;99.90;;;;;;5060465;28;20390;-46
2022/06/29 07:23:44;;;;;;;4.43;0.90;;;22.40;99.90;;;;;;5061222;28;20112;-45
2022/06/29 07:26:10;;;;;;;1.20;0.80;;;22.50;99.90;;;;;;5058232;28;20044;-49
2022/06/29 07:28:35;;;;;;;1.58;1.20;;;22.40;99.90;;;;;;5060953;28;20031;-50
2022/06/29 07:31:01;;;;;;;2.22;0.93;;;22.40;99.90;;;;;;5060320;28;20391;-50
2022/06/29 07:33:26;;;;;;;1.90;1.10;;;22.40;99.90;;;;;;5064568;28;20085;-48
2022/06/29 07:35:52;;;;;;;2.38;1.10;;;22.40;99.90;;;;;;5063891;28;20028;-53
2022/06/29 07:38:19;;;;;;;1.20;1.10;;;22.50;99.90;;;;;;5064974;28;20016;-52
2022/06/29 07:40:44;;;;;;;2.17;1.33;;;22.60;99.90;;;;;;5065159;28;20429;-52
2022/06/29 07:43:10;;;;;;;1.20;1.10;;;22.80;99.90;;;;;;5061999;28;20021;-46
2022/06/29 07:45:35;;;;;;;1.27;1.10;;;22.90;99.90;;;;;;5064627;28;20339;-48
2022/06/29 07:48:01;;;;;;;1.80;1.40;;;23.00;99.90;;;;;;5062837;28;20445;-51
2022/06/29 07:50:27;;;;;;;1.38;1.17;;;23.00;99.90;;;;;;5064577;28;20033;-46
2022/06/29 07:52:52;;;;;;;1.10;1.00;;;22.90;99.90;;;;;;5063389;28;20029;-46
2022/06/29 07:55:18;;;;;;;3.65;1.25;;;23.00;99.90;;;;;;5064944;28;20021;-51
2022/06/29 07:57:44;;;;;;;1.17;1.08;;;23.10;99.90;;;;;;5064487;28;20036;-49
2022/06/29 08:00:10;;;;;;;2.33;1.20;;;23.30;99.90;;;;;;5056578;28;20028;-49
2022/06/29 08:02:36;;;;;;;1.77;1.20;;;23.40;99.90;;;;;;5066313;28;20386;-48
2022/06/29 08:05:02;;;;;;;1.02;1.00;;;23.50;99.90;;;;;;5062218;28;20105;-49
2022/06/29 08:07:28;;;;;;;1.13;0.98;;;23.70;99.90;;;;;;5060602;28;20020;-46
2022/06/29 08:09:53;;;;;;;0.90;0.90;;;23.90;99.90;;;;;;5066481;28;20021;-46
2022/06/29 08:12:20;;;;;;;1.00;1.00;;;24.00;99.90;;;;;;5060437;28;20017;-50
2022/06/29 08:14:46;;;;;;;2.08;1.10;;;24.10;98.70;;;;;;5066767;28;20521;-51
2022/06/29 08:17:11;;;;;;;1.67;1.27;;;24.10;99.30;;;;;;5060915;28;20025;-50
2022/06/29 08:19:37;;;;;;;1.75;1.20;;;24.20;98.30;;;;;;5066639;28;20029;-49
2022/06/29 08:22:03;;;;;;;1.88;0.82;;;24.50;99.10;;;;;;5061615;28;20074;-48
2022/06/29 08:24:28;;;;;;;2.58;1.30;;;24.80;99.10;;;;;;5060267;28;20039;-51
2022/06/29 08:26:54;;;;;;;0.80;0.80;;;25.00;98.20;;;;;;5066227;28;20054;-49
2022/06/29 08:29:20;;;;;;;1.40;1.30;;;25.20;97.90;;;;;;5060149;28;20029;-46
2022/06/29 08:31:46;;;;;;;0.98;0.98;;;25.60;98.10;;;;;;5066471;28;20027;-46
2022/06/29 08:34:13;;;;;;;0.90;0.90;;;25.70;96.40;;;;;;5060271;28;20017;-47
2022/06/29 08:36:39;;;;;;;1.30;1.20;;;25.80;96.70;;;;;;5066504;28;20016;-45
2022/06/29 08:39:05;;;;;;;1.67;1.35;;;25.90;96.50;;;;;;5061224;28;20562;-48
2022/06/29 08:41:32;;;;;;;1.33;1.20;;;26.10;95.90;;;;;;5059522;28;20017;-47
2022/06/29 08:44:02;;;;;;;2.38;1.23;;;26.20;95.90;;;;;;5064961;28;20064;-50
2022/06/29 08:46:27;;;;;;;0.90;0.90;;;26.40;95.20;;;;;;5059926;28;20064;-47
2022/06/29 08:48:53;;;;;;;2.20;1.10;;;26.40;95.00;;;;;;5066311;28;20456;-49
2022/06/29 08:51:19;;;;;;;1.55;1.20;;;26.60;95.00;;;;;;5059501;28;20032;-47
2022/06/29 08:53:46;;;;;;;1.52;1.05;;;26.70;94.80;;;;;;5066841;28;20142;-51
2022/06/29 08:56:13;;;;;;;2.05;1.27;;;26.70;94.40;;;;;;5060110;28;20053;-47
2022/06/29 08:58:41;;;;;;;1.30;1.15;;;26.70;94.20;;;;;;5055477;28;20025;-47
2022/06/29 09:01:06;;;;;;;1.30;1.20;;;26.80;94.80;;;;;;5061444;28;20483;-46
2022/06/29 09:03:32;;;;;;;1.40;1.30;;;27.00;94.60;;;;;;5064952;28;20111;-48
2022/06/29 09:05:58;;;;;;;1.95;1.60;;;27.00;94.50;;;;;;5061428;28;20033;-51
2022/06/29 09:08:23;;;;;;;3.10;1.30;;;27.10;94.20;;;;;;5063435;28;20063;-50
2022/06/29 09:10:49;;;;;;;3.33;1.10;;;27.20;93.90;;;;;;5060621;28;20021;-48
2022/06/29 09:13:20;;;;;;;1.15;1.10;;;27.20;93.10;;;;;;5062659;28;20424;-53
2022/06/29 09:15:46;;;;;;;1.40;1.30;;;27.20;94.00;;;;;;5061892;28;20364;-54
2022/06/29 09:18:30;;;;;;;1.67;1.30;;;27.20;93.40;;;;;;5059477;28;20025;-51
2022/06/29 09:21:02;;;;;;;1.63;1.35;;;27.30;93.40;;;;;;5060447;28;20422;-46
2022/06/29 09:23:29;;;;;;;2.10;1.30;;;27.30;92.00;;;;;;5059540;28;20101;-50
2022/06/29 09:25:55;;;;;;;1.70;1.60;;;27.20;92.80;;;;;;5057628;28;20032;-46
2022/06/29 09:28:29;;;;;;;1.52;1.42;;;27.30;93.30;;;;;;5062047;28;20039;-52
2022/06/29 09:30:56;;;;;;;2.08;1.50;;;27.40;93.00;;;;;;5060464;28;20339;-48
2022/06/29 09:33:24;;;;;;;1.75;1.30;;;27.60;91.20;;;;;;5062372;28;20020;-48
2022/06/29 09:36:12;;;;;;;1.98;1.20;;;27.70;92.50;;;;;;5061855;28;20532;-49
2022/06/29 09:38:38;;;;;;;1.70;1.27;;;27.70;91.60;;;;;;5062679;28;20044;-47
2022/06/29 09:41:06;;;;;;;1.40;1.30;;;27.70;92.10;;;;;;5060336;28;20025;-47
2022/06/29 09:43:41;;;;;;;2.70;1.42;;;27.80;91.90;;;;;;5060942;28;20024;-48
2022/06/29 09:46:08;;;;;;;1.95;1.38;;;27.50;91.10;;;;;;5059450;28;20024;-48
2022/06/29 09:48:36;;;;;;;1.60;1.50;;;27.40;91.60;;;;;;5063639;28;20025;-49
2022/06/29 09:51:48;;;;;;;1.50;1.40;;;27.40;91.60;;;;;;5060155;28;20025;-51
2022/06/29 09:53:54;;;;;;;1.48;1.25;;;27.20;91.90;;;;;;5040271;28;20391;-49
2022/06/29 09:56:21;;;;;;;1.33;1.23;;;27.00;92.10;;;;;;5058543;28;20028;-49
2022/06/29 09:58:48;;;;;;;2.28;1.90;;;26.80;91.60;;;;;;5054391;28;20423;-48
2022/06/29 10:04:00;;;;;;;2.97;1.90;;;26.60;93.00;;;;;;5061004;28;20039;-46
2022/06/29 10:06:27;;;;;;;1.52;1.42;;;26.60;93.00;;;;;;5061563;28;20044;-47
2022/06/29 10:08:53;;;;;;;3.22;1.25;;;26.70;92.30;;;;;;5059071;28;20053;-47
2022/06/29 10:15:02;;;;;;;1.15;1.15;;;27.20;91.20;;;;;;5058082;28;20508;-53
2022/06/29 10:17:44;;;;;;;1.70;1.55;;;27.30;92.30;;;;;;5055442;28;20750;-48
2022/06/29 10:20:38;;;;;;;2.10;1.70;;;27.50;91.70;;;;;;5065601;28;20025;-50
2022/06/29 10:23:03;;;;;;;1.77;1.30;;;27.80;91.70;;;;;;5058203;28;20021;-49
2022/06/29 10:25:29;;;;;;;3.40;1.30;;;27.80;90.00;;;;;;5061155;28;20032;-50
2022/06/29 10:28:19;;;;;;;1.95;1.27;;;27.50;91.00;;;;;;5058972;28;20029;-52
2022/06/29 10:30:45;;;;;;;1.52;1.42;;;27.60;91.30;;;;;;5060754;28;20520;-49
2022/06/29 10:33:36;;;;;;;1.45;1.35;;;27.80;90.80;;;;;;5061237;28;20078;-51
2022/06/29 10:36:09;;;;;;;2.25;1.33;;;27.80;89.00;;;;;;5060455;28;20403;-52
2022/06/29 10:38:55;;;;;;;1.95;1.73;;;27.80;89.70;;;;;;5061594;28;20020;-51
2022/06/29 10:44:06;;;;;;;1.40;1.30;;;28.00;86.20;;;;;;5064001;28;20039;-49
2022/06/29 10:46:55;;;;;;;1.30;1.20;;;28.00;86.20;;;;;;5057845;28;20039;-52
2022/06/29 10:49:21;;;;;;;2.65;1.50;;;28.00;85.10;;;;;;5052112;28;20013;-50
2022/06/29 10:51:49;;;;;;;2.78;1.40;;;27.80;86.40;;;;;;5057604;28;20082;-51
2022/06/29 10:54:26;;;;;;;1.80;1.20;;;27.70;89.10;;;;;;5050520;28;20017;-51
2022/06/29 10:56:52;;;;;;;3.38;1.60;;;27.80;89.10;;;;;;5055298;28;20017;-49
2022/06/29 10:59:34;;;;;;;1.55;1.40;;;27.90;87.80;;;;;;5056520;28;20033;-53
2022/06/29 11:02:15;;;;;;;1.20;1.20;;;27.80;88.90;;;;;;5059779;28;20426;-53
2022/06/29 11:04:42;;;;;;;1.95;1.40;;;27.50;86.70;;;;;;5061142;28;20017;-47
2022/06/29 11:12:50;;;;;;;1.20;1.10;;;27.10;88.10;;;;;;5052964;28;20110;-47
2022/06/29 11:15:42;;;;;;;1.50;1.40;;;26.90;88.30;;;;;;5050999;28;20036;-50
2022/06/29 11:18:19;;;;;;;1.52;1.40;;;26.80;86.10;;;;;;5042919;28;20060;-47
2022/06/29 11:20:48;;;;;;;1.75;1.40;;;26.90;85.80;;;;;;5060839;28;20025;-52
2022/06/29 11:23:27;;;;;;;2.30;1.55;;;27.00;86.60;;;;;;5046735;28;20059;-49
2022/06/29 11:25:54;;;;;;;1.98;1.40;;;27.30;86.90;;;;;;5058608;28;20027;-52
2022/06/29 11:28:26;;;;;;;2.13;1.58;;;27.50;84.80;;;;;;5067976;22;20071;-76
2022/06/29 11:31:00;;;;;;;1.77;1.42;;;27.70;85.20;;;;;;5050038;28;20200;-78
2022/06/29 11:33:31;;;;;;;2.78;1.40;;;27.90;87.60;;;;;;5052890;28;20044;-77
2022/06/29 11:36:02;;;;;;;2.20;1.65;;;27.90;86.30;;;;;;5056688;28;20032;-77
2022/06/29 11:38:27;;;;;;;1.50;1.40;;;27.90;86.20;;;;;;5059980;28;20025;-77
2022/06/29 11:40:56;;;;;;;1.27;1.17;;;27.90;87.00;;;;;;5060059;28;20025;-77
2022/06/29 11:43:22;;;;;;;1.42;1.38;;;28.00;85.80;;;;;;5059544;28;20100;-78
2022/06/29 11:45:56;;;;;;;1.40;1.25;;;27.90;86.30;;;;;;5052027;28;20673;-77
2022/06/29 11:48:23;;;;;;;2.30;1.58;;;27.70;85.00;;;;;;5048783;28;20112;-77
2022/06/29 11:50:54;;;;;;;1.42;1.33;;;27.60;86.20;;;;;;5046345;28;20022;-77
2022/06/29 11:53:47;;;;;;;1.58;1.20;;;27.60;86.00;;;;;;5048205;28;20013;-77
2022/06/29 11:56:13;;;;;;;2.65;1.58;;;27.40;86.30;;;;;;5057205;28;20029;-77
2022/06/29 11:58:42;;;;;;;2.30;1.45;;;27.30;85.20;;;;;;5053758;28;20079;-77
2022/06/29 12:01:15;;;;;;;2.00;1.50;;;27.10;85.60;;;;;;5062928;28;20618;-77
2022/06/29 12:04:25;;;;;;;2.50;1.17;;;27.00;86.70;;;;;;5059309;28;20020;-77
2022/06/29 12:07:06;;;;;;;1.42;1.33;;;26.90;88.20;;;;;;5025890;28;20037;-77
2022/06/29 12:09:33;;;;;;;1.85;1.60;;;26.90;85.90;;;;;;5060553;28;20048;-77
2022/06/29 12:11:58;;;;;;;3.55;1.42;;;26.80;85.10;;;;;;5059046;28;20028;-77
2022/06/29 12:14:27;;;;;;;2.65;1.20;;;26.80;85.60;;;;;;5059431;28;20483;-77
2022/06/29 12:16:52;;;;;;;2.90;1.48;;;27.00;85.70;;;;;;5060348;28;20017;-77
2022/06/29 12:19:18;;;;;;;3.00;1.20;;;27.30;86.30;;;;;;5061962;28;20069;-79
2022/06/29 12:21:44;;;;;;;2.92;1.30;;;27.60;85.90;;;;;;5053143;28;20114;-77
2022/06/29 12:24:09;;;;;;;2.95;1.30;;;27.90;84.50;;;;;;5051380;28;20040;-77
2022/06/29 12:26:35;;;;;;;1.13;1.13;;;27.90;80.80;;;;;;5052082;28;20036;-77
2022/06/29 12:29:00;;;;;;;1.98;1.30;;;28.00;80.30;;;;;;5054769;28;20143;-78
2022/06/29 12:31:26;;;;;;;1.40;1.30;;;27.90;81.60;;;;;;5051296;28;20460;-77
2022/06/29 12:33:52;;;;;;;1.42;1.30;;;28.00;82.00;;;;;;5056386;28;20370;-76
2022/06/29 12:36:17;;;;;;;1.30;1.20;;;27.90;81.50;;;;;;5060276;28;20021;-78
2022/06/29 12:38:43;;;;;;;1.30;1.20;;;27.90;80.10;;;;;;5055272;28;20070;-75
2022/06/29 12:41:08;;;;;;;1.30;1.20;;;27.90;81.00;;;;;;5052473;28;20025;-77
2022/06/29 12:43:34;;;;;;;2.90;1.33;;;27.90;80.30;;;;;;5062701;28;20033;-77
2022/06/29 12:46:01;;;;;;;2.17;1.25;;;28.10;79.70;;;;;;5057690;28;20033;-76
2022/06/29 12:48:27;;;;;;;1.40;1.30;;;28.20;76.00;;;;;;5049782;28;20111;-77
2022/06/29 12:50:52;;;;;;;1.25;1.13;;;28.20;78.50;;;;;;5062036;28;20174;-77
2022/06/29 12:53:18;;;;;;;2.08;1.50;;;28.40;77.90;;;;;;5060614;28;20573;-77
2022/06/29 12:55:43;;;;;;;1.42;1.33;;;28.50;77.50;;;;;;5051659;28;20052;-77
2022/06/29 12:58:09;;;;;;;2.17;1.25;;;28.80;77.80;;;;;;5053630;28;20024;-77
2022/06/29 13:00:35;;;;;;;1.52;1.30;;;29.00;77.50;;;;;;5059295;28;20037;-77
2022/06/29 13:03:01;;;;;;;1.88;1.58;;;29.10;75.50;;;;;;5066210;28;20104;-76
2022/06/29 13:05:27;;;;;;;3.17;1.20;;;29.20;76.40;;;;;;5058656;28;20049;-76
2022/06/29 13:07:52;;;;;;;1.50;1.20;;;29.40;77.40;;;;;;5034501;28;20131;-77
2022/06/29 13:10:18;;;;;;;1.23;1.10;;;29.60;74.20;;;;;;5059619;28;20020;-78
2022/06/29 13:12:44;;;;;;;1.48;1.38;;;29.80;73.70;;;;;;5050728;28;20396;-77
2022/06/29 13:15:10;;;;;;;1.73;1.20;;;29.90;72.60;;;;;;5053903;28;20075;-76
2022/06/29 13:17:36;;;;;;;1.02;0.98;;;29.90;73.10;;;;;;5058748;28;20467;-77
2022/06/29 13:20:06;;;;;;;1.52;1.15;;;30.00;71.60;;;;;;5067034;28;20127;-78
2022/06/29 13:22:32;;;;;;;1.33;1.13;;;30.00;71.60;;;;;;5057540;28;20029;-77
2022/06/29 13:24:57;;;;;;;1.67;1.30;;;30.10;69.20;;;;;;5049428;28;20103;-77
2022/06/29 13:27:23;;;;;;;2.65;1.30;;;30.10;71.10;;;;;;5059348;28;20036;-76
2022/06/29 13:29:49;;;;;;;1.50;1.40;;;30.00;67.90;;;;;;5051121;28;20567;-76
2022/06/29 13:32:14;;;;;;;1.60;1.25;;;30.00;69.50;;;;;;5060647;28;20058;-76
2022/06/29 13:34:40;;;;;;;1.00;0.90;;;30.00;70.50;;;;;;5052600;28;20017;-76
2022/06/29 13:37:06;;;;;;;1.88;0.82;;;30.10;69.50;;;;;;5060544;28;20017;-78
2022/06/29 13:39:31;;;;;;;1.52;0.98;;;30.30;70.00;;;;;;5054520;28;20044;-76
2022/06/29 13:42:00;;;;;;;1.58;1.10;;;30.50;68.40;;;;;;5058930;28;20092;-77
2022/06/29 13:44:26;;;;;;;1.63;1.52;;;30.50;69.30;;;;;;5058891;28;20532;-77
2022/06/29 13:46:51;;;;;;;1.42;1.33;;;30.60;65.90;;;;;;5059192;28;20017;-78